createdAt,value
2022-10-07T00:36:51.152Z,101697
2022-10-07T01:22:15.516Z,101658
2022-10-07T01:29:16.349Z,101658
2022-10-07T01:35:30.477Z,101642
2022-10-07T01:42:13.837Z,101631
2022-10-07T02:01:16.300Z,101608
2022-10-07T02:14:31.049Z,101597
2022-10-07T02:21:08.620Z,101592
2022-10-07T02:47:12.731Z,101556
2022-10-07T03:52:42.467Z,101514
2022-10-07T03:58:41.092Z,101513
2022-10-07T04:04:34.120Z,101515
2022-10-07T04:10:28.856Z,101507
2022-10-07T04:16:22.096Z,101507
2022-10-07T04:22:14.968Z,101500
2022-10-07T04:28:48.370Z,101501
2022-10-07T04:35:01.989Z,101500
2022-10-07T04:47:06.705Z,101489
2022-10-07T04:53:00.484Z,101481
2022-10-07T04:58:56.482Z,101478
2022-10-07T05:04:55.148Z,101472
2022-10-07T05:10:55.172Z,101473
2022-10-07T05:16:55.262Z,101466
2022-10-07T05:22:50.130Z,101465
2022-10-07T05:28:45.614Z,101466
2022-10-07T05:34:39.435Z,101466
2022-10-07T05:40:50.483Z,101472
2022-10-07T05:46:47.224Z,101475
2022-10-07T05:52:40.274Z,101458
2022-10-07T05:58:37.173Z,101449
2022-10-07T06:04:30.524Z,101443
2022-10-07T06:10:23.978Z,101438
2022-10-07T06:16:30.188Z,101440
2022-10-07T06:22:23.825Z,101434
2022-10-07T06:28:18.297Z,101434
2022-10-07T06:34:11.328Z,101443
2022-10-07T06:40:03.468Z,101440
2022-10-07T06:45:55.781Z,101437
2022-10-07T06:51:46.617Z,101444
2022-10-07T06:57:48.860Z,101447
2022-10-07T07:03:38.648Z,101450
2022-10-07T07:09:32.145Z,101447
2022-10-07T07:15:23.409Z,101436
2022-10-07T07:21:14.423Z,101445
2022-10-07T07:27:09.927Z,101444
2022-10-07T07:33:00.924Z,101451
2022-10-07T07:38:53.768Z,101455
2022-10-07T07:44:44.749Z,101450
2022-10-07T07:50:36.334Z,101450
2022-10-07T07:56:29.103Z,101440
2022-10-07T08:02:21.476Z,101432
2022-10-07T08:08:13.286Z,101438
2022-10-07T08:14:05.932Z,101430
2022-10-07T08:20:03.203Z,101426
2022-10-07T08:25:54.797Z,101419
2022-10-07T08:31:46.483Z,101417
2022-10-07T08:37:37.731Z,101411
2022-10-07T08:43:31.596Z,101406
2022-10-07T08:49:26.152Z,101404
2022-10-07T08:55:18.119Z,101392
2022-10-07T09:01:09.429Z,101388
2022-10-07T09:07:02.471Z,101372
2022-10-07T09:12:53.452Z,101368
2022-10-07T09:18:44.016Z,101362
2022-10-07T09:24:36.208Z,101352
2022-10-07T09:30:27.092Z,101348
2022-10-07T09:36:18.507Z,101342
2022-10-07T09:42:12.065Z,101332
2022-10-07T09:48:03.640Z,101326
2022-10-07T09:53:55.476Z,101316
2022-10-07T09:59:47.642Z,101310
2022-10-07T10:05:40.004Z,101303
2022-10-07T10:11:31.859Z,101298
2022-10-07T10:17:22.434Z,101290
2022-10-07T10:23:14.832Z,101281
2022-10-07T10:29:05.998Z,101277
2022-10-07T10:34:55.015Z,101259
2022-10-07T10:40:44.506Z,101250
2022-10-07T10:46:34.188Z,101242
2022-10-07T10:52:24.605Z,101227
2022-10-07T10:58:14.714Z,101215
2022-10-07T11:04:04.584Z,101208
2022-10-07T11:09:55.082Z,101192
2022-10-07T11:15:46.520Z,101184
2022-10-07T11:21:36.310Z,101172
2022-10-07T11:27:27.837Z,101161
2022-10-07T11:33:18.545Z,101147
2022-10-07T11:39:09.292Z,101133
2022-10-07T11:44:59.124Z,101121
2022-10-07T11:50:49.600Z,101115
2022-10-07T11:56:40.598Z,101109
2022-10-07T12:02:31.337Z,101091
2022-10-07T12:08:23.623Z,101080
2022-10-07T12:14:15.303Z,101067
2022-10-07T12:20:08.457Z,101055
2022-10-07T12:26:00.473Z,101041
2022-10-07T12:31:52.144Z,101030
2022-10-07T12:37:42.531Z,101020
2022-10-07T12:43:34.402Z,101006
2022-10-07T12:49:24.867Z,101003
2022-10-07T12:55:16.833Z,100986
2022-10-07T13:01:07.448Z,100977
2022-10-07T13:06:59.320Z,100971
2022-10-07T13:13:00.006Z,100958
2022-10-07T13:18:56.220Z,100952
2022-10-07T13:24:51.734Z,100941
2022-10-07T13:30:47.012Z,100933
2022-10-07T13:36:39.612Z,100913
2022-10-07T13:42:30.388Z,100910
2022-10-07T13:48:24.228Z,100900
2022-10-07T13:54:15.929Z,100899
2022-10-07T14:00:06.489Z,100891
2022-10-07T14:05:58.621Z,100888
2022-10-07T14:11:50.730Z,100872
2022-10-07T14:17:41.158Z,100864
2022-10-07T14:23:32.357Z,100849
2022-10-07T14:29:23.137Z,100845
2022-10-07T14:35:13.089Z,100837
2022-10-07T14:41:03.450Z,100831
2022-10-07T14:46:54.242Z,100817
2022-10-07T14:52:48.716Z,100810
2022-10-07T14:58:40.364Z,100799
2022-10-07T15:04:33.791Z,100789
2022-10-07T15:10:24.349Z,100787
2022-10-07T15:16:18.152Z,100767
2022-10-07T15:22:09.881Z,100771
2022-10-07T15:27:59.949Z,100766
2022-10-07T15:33:50.437Z,100754
2022-10-07T15:39:44.989Z,100746
2022-10-07T15:45:42.118Z,100738
2022-10-07T15:51:32.727Z,100734
2022-10-07T15:57:25.638Z,100733
2022-10-07T16:03:19.697Z,100724
2022-10-07T16:09:09.800Z,100723
2022-10-07T16:15:02.688Z,100727
2022-10-07T16:20:53.724Z,100724
2022-10-07T16:26:44.734Z,100722
2022-10-07T16:32:35.834Z,100724
2022-10-07T16:38:28.099Z,100726
2022-10-07T16:44:21.011Z,100726
2022-10-07T16:50:15.041Z,100730
2022-10-07T16:56:05.233Z,100728
2022-10-07T17:01:58.912Z,100725
2022-10-07T17:07:49.499Z,100726
2022-10-07T17:13:42.853Z,100730
2022-10-07T17:19:33.295Z,100728
2022-10-07T17:25:23.546Z,100727
2022-10-07T17:31:14.157Z,100733
2022-10-07T17:37:04.440Z,100735
2022-10-07T17:42:54.401Z,100732
2022-10-07T17:48:44.040Z,100733
2022-10-07T17:54:35.375Z,100734
2022-10-07T18:00:26.198Z,100738
2022-10-07T18:06:19.156Z,100743
2022-10-07T18:12:09.334Z,100745
2022-10-07T18:18:00.897Z,100740
2022-10-07T18:23:51.918Z,100741
2022-10-07T18:29:46.547Z,100730
2022-10-07T18:35:39.516Z,100726
2022-10-07T18:41:31.538Z,100727
2022-10-07T18:47:23.039Z,100726
2022-10-07T18:53:11.795Z,100724
2022-10-07T18:59:01.693Z,100720
2022-10-07T19:04:51.834Z,100721
2022-10-07T19:10:41.883Z,100727
2022-10-07T19:16:30.771Z,100727
2022-10-07T19:22:21.496Z,100733
2022-10-07T19:28:13.814Z,100735
2022-10-07T19:34:03.453Z,100740
2022-10-07T19:39:53.920Z,100742
2022-10-07T19:45:42.353Z,100735
2022-10-07T19:51:33.771Z,100738
2022-10-07T19:57:26.017Z,100740
2022-10-07T20:03:14.974Z,100743
2022-10-07T20:09:04.329Z,100737
2022-10-07T20:14:55.747Z,100741
2022-10-07T20:20:46.729Z,100740
2022-10-07T20:26:40.787Z,100747
2022-10-07T20:32:30.825Z,100747
2022-10-07T20:38:21.914Z,100738
2022-10-07T20:44:11.167Z,100744
2022-10-07T20:50:02.492Z,100748
2022-10-07T20:55:53.369Z,100753
2022-10-07T21:01:43.464Z,100743
2022-10-07T21:07:34.580Z,100736
2022-10-07T21:13:24.745Z,100747
2022-10-07T21:19:14.185Z,100746
2022-10-07T21:25:04.529Z,100748
2022-10-07T21:30:54.574Z,100733
2022-10-07T21:36:44.803Z,100735
2022-10-07T21:42:41.684Z,100735
2022-10-07T21:48:33.749Z,100734
2022-10-07T21:54:24.783Z,100735
2022-10-07T22:00:17.313Z,100732
2022-10-07T22:06:15.983Z,100735
2022-10-07T22:12:12.089Z,100725
2022-10-07T22:18:10.533Z,100732
2022-10-07T22:24:03.664Z,100724
2022-10-07T22:30:00.134Z,100724
2022-10-07T22:36:06.424Z,100721
2022-10-07T22:41:57.693Z,100718
2022-10-07T22:47:52.668Z,100716
2022-10-07T22:53:43.972Z,100712
2022-10-07T22:59:42.529Z,100706
2022-10-07T23:05:38.509Z,100711
2022-10-07T23:11:38.422Z,100702
2022-10-07T23:17:31.939Z,100706
2022-10-07T23:23:36.009Z,100710
2022-10-07T23:29:31.226Z,100694
2022-10-07T23:35:38.252Z,100697
2022-10-07T23:41:36.778Z,100685
2022-10-07T23:47:33.521Z,100685
2022-10-07T23:54:00.440Z,100674
